Anacoco, LA

3:19 PM CDT on September 01, 2015 (GMT -0500)
Crosby Loop | | Change Station
CLOSE
Current Station
Personal Weather Station
Location: Leesville, LA
Elevation: 256 ft
Nearby Weather Stations

Elev 256 ft 31.15 °N, 93.24 °W | Updated 5 seconds ago

Mostly Cloudy
Mostly Cloudy
91.4 °F
Feels Like 89 °F
N
1.6
Wind Variable Wind from North
Gusts 3.1 mph

Today
High -- | Low -- °F
--% Chance of Precip.
Yesterday
High -- | Low -- °F
Precip. -- in
6:49 AM 7:37 PM
Waning Gibbous, 86% visible
Pressure 30.04 in
Visibility 9.0 miles
Clouds Few 6000 ft
Mostly Cloudy 9500 ft
Overcast 11000 ft
Heat Index 89 °F
Dew Point 36 °F
Humidity 28%
Rainfall 0.00 in
Snow Depth Not available.
UV 2 out of 12
Pollen 6.60 out of 12
Air Quality Not available.
Flu Activity Not available.
SPECI KAQV 012017Z AUTO 00000KT 9SM TS FEW060 BKN095 OVC110 26/23 A3004 RMK AO2 RAB1958E09 TSB11 P0000 T02560233
Pressure 30.04 in
Visibility 9.0 miles
Clouds Few 6000 ft
Mostly Cloudy 9500 ft
Overcast 11000 ft
Heat Index 89 °F
Dew Point 36 °F
Humidity 28%
Rainfall 0.00 in
Snow Depth Not available.
UV 2 out of 12
Pollen 6.60 out of 12
Air Quality Not available.
Flu Activity Not available.
SPECI KAQV 012017Z AUTO 00000KT 9SM TS FEW060 BKN095 OVC110 26/23 A3004 RMK AO2 RAB1958E09 TSB11 P0000 T02560233

10-Day Weather Forecast

×

Almanac

Astronomy

Sep. 01, 2015 Rise Set
Actual Time
Civil Twilight
Nautical Twilight
Astronomical Twilight
Moon
Length of Visible Light
Length of Day
Tomorrow will be .
, % of the Moon is Illuminated

Today's Extremes

State Highs State Lows

Community

WunderPhotos

Upload Photos

1,851,605 photos uploaded!

WunderBlogs® & News

Nearby

Air Quality

  Air Quality AQ Index Pollutant
Not available.

Snow Depth

Station Depth Elevation

Earthquake Activity

City Distance Mag. Time & Date
Minimum magnitude displayed is 2.5.

Coastal Water Temperatures

Place Temperature

Stations

Nearby Weather Stations

Station Location Temp. Windchill Dew Point Humidity Wind Precip. Elev Updated Type